createdAt,value
2023-04-22T00:02:23.332Z,7.97
2023-04-22T00:06:05.276Z,9.40
2023-04-22T00:09:46.992Z,9.20
2023-04-22T00:13:28.798Z,7.30
2023-04-22T00:17:11.002Z,7.85
2023-04-22T00:20:52.724Z,7.38
2023-04-22T00:24:34.465Z,7.15
2023-04-22T00:28:16.370Z,7.30
2023-04-22T00:31:58.243Z,7.43
2023-04-22T00:35:40.074Z,7.60
2023-04-22T00:39:21.758Z,6.97
2023-04-22T00:43:03.639Z,7.22
2023-04-22T00:46:46.159Z,8.05
2023-04-22T00:50:27.967Z,7.13
2023-04-22T00:54:09.792Z,8.07
2023-04-22T00:57:54.733Z,7.25
2023-04-22T01:01:36.843Z,7.53
2023-04-22T01:05:18.706Z,7.63
2023-04-22T01:09:00.802Z,7.13
2023-04-22T01:12:42.572Z,6.30
2023-04-22T01:16:25.855Z,6.72
2023-04-22T01:20:10.517Z,6.55
2023-04-22T01:23:52.836Z,6.18
2023-04-22T01:27:35.631Z,6.63
2023-04-22T01:31:17.854Z,7.10
2023-04-22T01:34:59.657Z,7.30
2023-04-22T01:38:41.447Z,6.90
2023-04-22T01:42:23.283Z,6.78
2023-04-22T01:46:05.680Z,6.95
2023-04-22T01:49:47.411Z,6.57
2023-04-22T01:53:29.176Z,7.50
2023-04-22T01:57:14.125Z,6.85
2023-04-22T02:00:56.145Z,6.75
2023-04-22T02:04:38.029Z,7.30
2023-04-22T02:08:19.764Z,7.07
2023-04-22T02:12:01.703Z,6.20
2023-04-22T02:15:43.504Z,6.95
2023-04-22T02:19:25.527Z,7.35
2023-04-22T02:23:07.450Z,7.03
2023-04-22T02:26:49.210Z,6.80
2023-04-22T02:30:30.932Z,7.05
2023-04-22T02:34:12.621Z,6.50
2023-04-22T02:37:54.622Z,8.70
2023-04-22T02:41:36.753Z,8.10
2023-04-22T02:45:18.562Z,7.97
2023-04-22T02:49:00.381Z,7.50
2023-04-22T02:52:42.405Z,6.95
2023-04-22T02:56:24.203Z,9.43
2023-04-22T03:00:06.623Z,10.02
2023-04-22T03:03:49.660Z,12.88
2023-04-22T03:07:32.391Z,10.85
2023-04-22T03:11:14.100Z,13.18
2023-04-22T03:14:56.021Z,11.27
2023-04-22T03:18:37.777Z,13.05
2023-04-22T03:22:19.486Z,12.15
2023-04-22T03:26:01.369Z,11.13
2023-04-22T03:29:43.203Z,10.65
2023-04-22T03:33:25.691Z,11.63
2023-04-22T03:37:07.519Z,13.00
2023-04-22T03:40:50.487Z,10.70
2023-04-22T03:44:33.268Z,10.38
2023-04-22T03:48:14.942Z,9.55
2023-04-22T03:51:56.625Z,10.70
2023-04-22T03:55:38.455Z,9.77
2023-04-22T03:59:20.292Z,10.75
2023-04-22T04:03:02.116Z,11.10
2023-04-22T04:06:44.064Z,12.35
2023-04-22T04:10:25.960Z,11.98
2023-04-22T04:14:08.061Z,10.05
2023-04-22T04:17:50.650Z,9.55
2023-04-22T04:21:33.429Z,9.45
2023-04-22T04:25:16.015Z,9.18
2023-04-22T04:28:58.017Z,9.82
2023-04-22T04:32:40.327Z,10.27
2023-04-22T04:36:22.037Z,11.75
2023-04-22T04:40:04.509Z,10.43
2023-04-22T04:43:46.354Z,11.07
2023-04-22T04:47:28.467Z,10.95
2023-04-22T04:51:11.637Z,8.95
2023-04-22T04:54:53.362Z,9.32
2023-04-22T04:58:35.044Z,9.93
2023-04-22T05:02:16.980Z,9.68
2023-04-22T05:05:59.026Z,10.02
2023-04-22T05:09:41.444Z,9.93
2023-04-22T05:13:23.606Z,9.77
2023-04-22T05:17:05.556Z,10.52
2023-04-22T05:20:47.515Z,9.43
2023-04-22T05:24:29.242Z,10.07
2023-04-22T05:28:10.980Z,10.32
2023-04-22T05:31:52.819Z,9.75
2023-04-22T05:35:35.456Z,10.20
2023-04-22T05:39:17.331Z,9.93
2023-04-22T05:42:59.084Z,10.52
2023-04-22T05:46:40.848Z,11.30
2023-04-22T05:50:23.401Z,10.10
2023-04-22T05:54:05.382Z,10.88
2023-04-22T05:57:47.131Z,9.02
2023-04-22T06:01:28.856Z,9.70
2023-04-22T06:05:10.712Z,9.38
2023-04-22T06:08:52.576Z,9.70
2023-04-22T06:12:34.692Z,10.27
2023-04-22T06:16:16.516Z,11.18
2023-04-22T06:19:58.321Z,10.50
2023-04-22T06:23:40.302Z,11.30
2023-04-22T06:27:22.046Z,10.27
2023-04-22T06:31:03.785Z,10.27
2023-04-22T06:34:45.657Z,11.15
2023-04-22T06:38:27.491Z,10.05
2023-04-22T06:42:09.293Z,10.80
2023-04-22T06:45:51.251Z,10.60
2023-04-22T06:49:33.024Z,10.40
2023-04-22T06:53:14.755Z,10.73
2023-04-22T06:56:56.665Z,9.93
2023-04-22T07:00:39.866Z,11.52
2023-04-22T07:04:22.015Z,10.43
2023-04-22T07:08:03.856Z,11.98
2023-04-22T07:11:46.369Z,10.82
2023-04-22T07:15:28.111Z,12.03
2023-04-22T07:19:09.845Z,11.50
2023-04-22T07:22:53.168Z,11.43
2023-04-22T07:26:38.896Z,10.05
2023-04-22T07:30:20.646Z,12.07
2023-04-22T07:34:02.900Z,12.60
2023-04-22T07:37:44.738Z,13.00
2023-04-22T07:41:26.516Z,10.80
2023-04-22T07:45:08.704Z,11.07
2023-04-22T07:48:50.661Z,11.23
2023-04-22T07:52:32.402Z,12.02
2023-04-22T07:56:14.301Z,12.82
2023-04-22T07:59:56.117Z,13.40
2023-04-22T08:03:38.030Z,11.38
2023-04-22T08:11:04.904Z,12.55
2023-04-22T08:14:46.626Z,12.13
2023-04-22T08:18:28.312Z,11.68
2023-04-22T08:22:10.123Z,12.43
2023-04-22T08:25:52.184Z,12.07
2023-04-22T08:29:34.063Z,13.13
2023-04-22T08:33:16.812Z,12.43
2023-04-22T08:36:58.810Z,12.85
2023-04-22T08:40:42.121Z,12.60
2023-04-22T08:48:07.494Z,14.48
2023-04-22T08:55:32.469Z,14.15
2023-04-22T08:59:14.350Z,15.03
2023-04-22T09:02:58.457Z,14.35
2023-04-22T09:06:40.327Z,15.10
2023-04-22T09:10:22.287Z,14.93
2023-04-22T09:14:04.862Z,18.48
2023-04-22T09:17:46.780Z,16.65
2023-04-22T09:21:33.096Z,17.38
2023-04-22T09:25:20.407Z,16.20
2023-04-22T09:29:02.448Z,17.48
2023-04-22T09:32:53.966Z,19.02
2023-04-22T09:36:37.789Z,18.40
2023-04-22T09:40:20.304Z,17.45
2023-04-22T09:44:03.943Z,18.77
2023-04-22T09:47:47.195Z,20.20
2023-04-22T09:51:30.625Z,19.35
2023-04-22T09:55:12.433Z,20.05
2023-04-22T09:58:54.253Z,20.38
2023-04-22T10:02:36.072Z,20.73
2023-04-22T10:06:17.832Z,20.80
2023-04-22T10:09:59.753Z,22.05
2023-04-22T10:13:41.595Z,20.38
2023-04-22T10:17:23.936Z,23.20
2023-04-22T10:21:06.588Z,22.97
2023-04-22T10:24:50.314Z,24.30
2023-04-22T10:28:35.288Z,23.05
2023-04-22T10:32:20.855Z,21.77
2023-04-22T10:36:11.405Z,19.85
2023-04-22T10:40:17.211Z,18.67
2023-04-22T10:44:02.084Z,17.98
2023-04-22T10:47:44.366Z,18.65
2023-04-22T10:51:45.877Z,18.73
2023-04-22T10:55:51.814Z,17.65
2023-04-22T10:59:43.104Z,19.25
2023-04-22T11:03:29.961Z,18.80
2023-04-22T11:07:22.983Z,17.33
2023-04-22T11:11:11.537Z,17.45
2023-04-22T11:14:53.803Z,13.23
2023-04-22T11:18:36.277Z,13.85
2023-04-22T11:22:18.119Z,13.90
2023-04-22T11:26:02.297Z,14.15
2023-04-22T11:29:44.357Z,13.32
2023-04-22T11:33:26.531Z,13.97
2023-04-22T11:37:08.293Z,14.03
2023-04-22T11:40:50.043Z,12.75
2023-04-22T11:44:31.806Z,11.23
2023-04-22T11:48:15.554Z,9.82
2023-04-22T11:51:57.634Z,11.20
2023-04-22T11:55:40.421Z,10.53
2023-04-22T11:59:25.239Z,10.77
2023-04-22T12:03:15.888Z,9.60
2023-04-22T12:06:57.803Z,8.73
2023-04-22T12:10:41.747Z,9.07
2023-04-22T12:14:34.680Z,8.93
2023-04-22T12:18:16.542Z,7.03
2023-04-22T12:21:58.428Z,7.60
2023-04-22T12:25:40.813Z,7.32
2023-04-22T12:29:33.679Z,7.30
2023-04-22T12:33:15.398Z,7.80
2023-04-22T12:36:57.124Z,7.45
2023-04-22T12:40:38.877Z,7.95
2023-04-22T12:44:20.911Z,8.25
2023-04-22T12:48:03.243Z,8.18
2023-04-22T12:51:44.951Z,8.20
2023-04-22T12:55:27.296Z,9.15
2023-04-22T12:59:09.078Z,8.73
2023-04-22T13:02:51.477Z,8.10
2023-04-22T13:06:33.988Z,8.27
2023-04-22T13:10:17.133Z,7.38
2023-04-22T13:13:58.877Z,7.82
2023-04-22T13:17:40.739Z,7.28
2023-04-22T13:21:22.472Z,6.80
2023-04-22T13:25:04.918Z,5.95
2023-04-22T13:28:46.685Z,6.80
2023-04-22T13:32:28.421Z,6.97
2023-04-22T13:36:11.027Z,7.47
2023-04-22T13:39:53.169Z,6.53
2023-04-22T13:43:34.887Z,7.67
2023-04-22T13:47:17.086Z,7.07
2023-04-22T13:50:58.797Z,8.18
2023-04-22T13:55:27.550Z,6.20
2023-04-22T13:59:09.386Z,6.35
2023-04-22T14:02:51.300Z,4.57
2023-04-22T14:06:33.340Z,5.32
2023-04-22T14:10:16.164Z,6.00
2023-04-22T14:13:58.295Z,6.03
2023-04-22T14:17:41.085Z,6.10
2023-04-22T14:21:24.528Z,6.70
2023-04-22T14:25:08.803Z,6.60
2023-04-22T14:28:50.574Z,7.07
2023-04-22T14:32:32.929Z,7.50
2023-04-22T14:36:15.828Z,7.05
2023-04-22T14:39:57.877Z,6.53
2023-04-22T14:43:39.738Z,6.57
2023-04-22T14:47:21.423Z,6.05
2023-04-22T14:51:03.301Z,7.60
2023-04-22T14:54:45.032Z,6.72
2023-04-22T14:58:31.721Z,6.10
2023-04-22T15:02:17.687Z,5.95
2023-04-22T15:05:59.672Z,6.10
2023-04-22T15:09:41.753Z,6.18
2023-04-22T15:13:25.134Z,6.25
2023-04-22T15:17:07.009Z,6.25
2023-04-22T15:20:48.714Z,5.97
2023-04-22T15:24:30.915Z,6.28
2023-04-22T15:28:12.613Z,6.28
2023-04-22T15:31:54.828Z,7.88
2023-04-22T15:35:36.561Z,7.35
2023-04-22T15:39:18.400Z,7.75
2023-04-22T15:43:00.137Z,7.93
2023-04-22T15:46:41.952Z,8.00
2023-04-22T15:50:25.035Z,8.45
2023-04-22T15:54:08.610Z,8.25
2023-04-22T15:57:50.493Z,9.23
2023-04-22T16:01:32.426Z,8.90
2023-04-22T16:05:14.723Z,8.95
2023-04-22T16:08:56.764Z,8.40
2023-04-22T16:12:38.496Z,8.35
2023-04-22T16:16:20.380Z,7.85
2023-04-22T16:20:02.678Z,9.48
2023-04-22T16:23:45.437Z,9.13
2023-04-22T16:27:27.266Z,9.90
2023-04-22T16:31:11.325Z,9.38
2023-04-22T16:34:53.123Z,8.85
2023-04-22T16:38:34.873Z,9.50
2023-04-22T16:42:16.716Z,9.98
2023-04-22T16:45:58.500Z,10.48
2023-04-22T16:49:40.438Z,9.98
2023-04-22T16:53:22.329Z,10.63
2023-04-22T16:57:04.871Z,11.95
2023-04-22T17:00:47.683Z,10.50
2023-04-22T17:08:11.566Z,11.88
2023-04-22T17:11:53.305Z,11.55
2023-04-22T17:15:35.063Z,11.52
2023-04-22T17:19:16.769Z,12.18
2023-04-22T17:22:58.520Z,10.82
2023-04-22T17:26:40.670Z,11.40
2023-04-22T17:30:22.831Z,12.48
2023-04-22T17:34:04.547Z,12.70
2023-04-22T17:37:46.350Z,13.10
2023-04-22T17:41:28.053Z,14.68
2023-04-22T17:45:10.680Z,15.07
2023-04-22T17:48:52.569Z,14.85
2023-04-22T17:52:34.357Z,14.18
2023-04-22T17:56:16.397Z,14.68
2023-04-22T17:59:58.205Z,16.33
2023-04-22T18:03:40.061Z,15.45
2023-04-22T18:07:22.689Z,15.55
2023-04-22T18:11:05.091Z,15.25
2023-04-22T18:14:46.949Z,15.45
2023-04-22T18:18:28.702Z,14.70
2023-04-22T18:22:10.430Z,14.93
2023-04-22T18:25:53.918Z,14.52
2023-04-22T18:29:36.011Z,14.30
2023-04-22T18:33:17.907Z,14.05
2023-04-22T18:36:59.691Z,14.70
2023-04-22T18:40:41.501Z,14.38
2023-04-22T18:44:23.220Z,13.30
2023-04-22T18:48:05.152Z,13.43
2023-04-22T18:51:49.310Z,12.82
2023-04-22T18:55:31.196Z,12.80
2023-04-22T18:59:13.054Z,13.25
2023-04-22T19:02:54.937Z,12.43
2023-04-22T19:06:36.863Z,14.60
2023-04-22T19:10:18.859Z,14.27
2023-04-22T19:14:02.862Z,14.23
2023-04-22T19:17:44.833Z,15.05
2023-04-22T19:21:27.149Z,15.73
2023-04-22T19:25:09.256Z,15.17
2023-04-22T19:28:51.033Z,14.98
2023-04-22T19:32:32.929Z,13.27
2023-04-22T19:36:14.881Z,13.18
2023-04-22T19:39:57.531Z,12.52
2023-04-22T19:43:40.475Z,13.15
2023-04-22T19:47:22.373Z,13.35
2023-04-22T19:51:05.523Z,12.52
2023-04-22T19:54:49.367Z,12.15
2023-04-22T19:58:32.332Z,13.57
2023-04-22T20:02:14.532Z,11.48
2023-04-22T20:05:58.014Z,11.70
2023-04-22T20:09:41.404Z,10.90
2023-04-22T20:13:23.683Z,11.27
2023-04-22T20:17:05.799Z,10.40
2023-04-22T20:20:49.464Z,8.48
2023-04-22T20:24:35.821Z,8.50
2023-04-22T20:28:18.049Z,7.57
2023-04-22T20:31:59.920Z,7.00
2023-04-22T20:35:42.243Z,7.40
2023-04-22T20:39:24.650Z,7.03
2023-04-22T20:43:06.998Z,7.15
2023-04-22T20:46:48.788Z,6.43
2023-04-22T20:50:36.203Z,5.93
2023-04-22T20:54:28.459Z,6.32
2023-04-22T20:58:11.168Z,6.47
2023-04-22T21:01:54.605Z,5.85
2023-04-22T21:05:44.493Z,6.18
2023-04-22T21:09:28.225Z,5.22
2023-04-22T21:13:10.130Z,5.68
2023-04-22T21:17:25.869Z,5.53
2023-04-22T21:21:09.360Z,5.00
2023-04-22T21:24:51.910Z,4.78
2023-04-22T21:28:33.925Z,4.03
2023-04-22T21:32:16.686Z,4.07
2023-04-22T21:35:59.137Z,4.18
2023-04-22T21:39:41.065Z,3.47
2023-04-22T21:43:22.974Z,3.85
2023-04-22T21:47:05.131Z,4.22
2023-04-22T21:50:46.930Z,3.83
2023-04-22T21:54:28.859Z,3.83
2023-04-22T21:58:10.621Z,4.88
2023-04-22T22:01:52.837Z,5.03
2023-04-22T22:05:36.007Z,3.47
2023-04-22T22:09:17.831Z,3.67
2023-04-22T22:12:59.559Z,3.95
2023-04-22T22:16:41.974Z,3.95
2023-04-22T22:20:23.873Z,4.28
2023-04-22T22:24:06.052Z,4.03
2023-04-22T22:27:49.120Z,3.42
2023-04-22T22:31:31.345Z,3.58
2023-04-22T22:35:13.346Z,5.18
2023-04-22T22:38:55.238Z,3.55
2023-04-22T22:42:37.015Z,3.78
2023-04-22T22:46:18.948Z,3.78
2023-04-22T22:50:00.782Z,3.45
2023-04-22T22:53:42.541Z,3.92
2023-04-22T22:57:24.294Z,3.90
2023-04-22T23:01:06.284Z,4.05
2023-04-22T23:04:48.324Z,3.13
2023-04-22T23:08:30.884Z,3.80
2023-04-22T23:12:12.603Z,3.15
2023-04-22T23:15:54.397Z,3.40
2023-04-22T23:19:36.635Z,4.13
2023-04-22T23:23:19.114Z,4.50
2023-04-22T23:27:01.689Z,4.63
2023-04-22T23:30:44.525Z,4.10
2023-04-22T23:34:27.172Z,3.67
2023-04-22T23:38:11.202Z,3.97
2023-04-22T23:41:52.877Z,4.40
2023-04-22T23:45:34.603Z,4.22
2023-04-22T23:49:16.507Z,4.18
2023-04-22T23:52:58.481Z,4.95
2023-04-22T23:56:40.901Z,4.18
